createdAt,value
2022-08-03T03:25:33.792Z,17.31
2022-08-03T03:28:06.469Z,17.37
2022-08-03T03:36:08.487Z,17.34
2022-08-03T03:38:37.293Z,17.34
2022-08-03T03:41:04.912Z,17.40
2022-08-03T03:43:31.971Z,17.43
2022-08-03T03:46:01.150Z,17.46
2022-08-03T03:48:28.053Z,17.23
2022-08-03T03:51:02.275Z,17.34
2022-08-03T03:53:28.965Z,17.37
2022-08-03T03:55:59.373Z,17.31
2022-08-03T03:58:31.141Z,17.30
2022-08-03T04:00:57.805Z,17.39
2022-08-03T04:03:24.374Z,17.46
2022-08-03T04:06:12.089Z,17.44
2022-08-03T04:08:58.075Z,17.49
2022-08-03T04:11:30.401Z,17.36
2022-08-03T04:14:23.522Z,17.31
2022-08-03T04:16:54.811Z,17.33
2022-08-03T04:19:46.826Z,17.42
2022-08-03T04:22:19.468Z,17.47
2022-08-03T04:24:55.858Z,17.50
2022-08-03T04:27:28.184Z,17.42
2022-08-03T04:29:57.001Z,17.49
2022-08-03T04:32:28.574Z,17.52
2022-08-03T04:34:55.323Z,17.58
2022-08-03T04:37:43.106Z,17.34
2022-08-03T04:40:15.941Z,17.31
2022-08-03T04:42:45.679Z,17.35
2022-08-03T04:45:14.820Z,17.47
2022-08-03T04:47:42.161Z,17.42
2022-08-03T04:50:13.496Z,17.41
2022-08-03T04:53:03.869Z,17.55
2022-08-03T04:55:36.534Z,17.64
2022-08-03T04:58:09.532Z,17.77
2022-08-03T05:00:38.350Z,17.94
2022-08-03T05:03:04.905Z,18.91
2022-08-03T05:05:51.027Z,19.17
2022-08-03T05:08:20.707Z,19.44
2022-08-03T05:10:54.615Z,20.99
2022-08-03T05:13:23.549Z,21.59
2022-08-03T05:15:52.530Z,21.78
2022-08-03T05:18:19.077Z,20.97
2022-08-03T05:20:48.148Z,19.92
2022-08-03T05:23:17.313Z,19.69
2022-08-03T05:25:49.807Z,19.47
2022-08-03T05:28:19.445Z,19.38
2022-08-03T05:30:48.314Z,19.58
2022-08-03T05:33:14.874Z,19.62
2022-08-03T05:35:57.322Z,19.95
2022-08-03T05:38:34.759Z,20.37
2022-08-03T05:41:22.442Z,20.39
2022-08-03T05:43:52.361Z,21.01
2022-08-03T05:46:22.217Z,21.31
2022-08-03T05:48:48.745Z,22.22
2022-08-03T05:51:15.360Z,24.86
2022-08-03T05:53:46.173Z,27.06
2022-08-03T05:56:14.310Z,30.12
2022-08-03T05:58:46.444Z,30.66
2022-08-03T06:01:13.683Z,33.08
2022-08-03T06:03:40.304Z,33.85
2022-08-03T06:06:06.887Z,34.21
2022-08-03T06:08:34.593Z,33.40
2022-08-03T06:11:01.124Z,34.32
2022-08-03T06:13:27.727Z,36.02
2022-08-03T06:15:54.330Z,36.01
2022-08-03T06:18:24.591Z,36.24
2022-08-03T06:20:54.248Z,37.07
2022-08-03T06:23:22.441Z,37.98
2022-08-03T06:25:49.360Z,37.80
2022-08-03T06:28:42.581Z,38.74
2022-08-03T06:31:06.947Z,38.15
2022-08-03T06:34:30.721Z,39.28
2022-08-03T06:36:22.264Z,35.52
2022-08-03T06:38:48.817Z,33.00
2022-08-03T06:41:17.687Z,35.71
2022-08-03T06:44:03.364Z,37.76
2022-08-03T06:46:33.007Z,39.38
2022-08-03T06:48:59.546Z,40.53
2022-08-03T06:52:06.088Z,41.41
2022-08-03T06:54:24.273Z,41.90
2022-08-03T06:56:53.667Z,42.54
2022-08-03T07:00:08.708Z,42.53
2022-08-03T07:02:07.433Z,42.84
2022-08-03T07:04:33.953Z,43.91
2022-08-03T07:07:02.551Z,41.81
2022-08-03T07:09:29.157Z,43.09
2022-08-03T07:11:57.012Z,44.34
2022-08-03T07:14:23.540Z,43.17
2022-08-03T07:16:50.033Z,43.70
2022-08-03T07:19:16.910Z,44.54
2022-08-03T07:21:45.876Z,44.35
2022-08-03T07:24:17.222Z,44.68
2022-08-03T07:26:43.744Z,45.39
2022-08-03T07:29:15.165Z,46.45
2022-08-03T07:31:42.169Z,46.49
2022-08-03T07:34:08.700Z,45.82
2022-08-03T07:36:35.197Z,47.04
2022-08-03T07:39:01.720Z,46.47
2022-08-03T07:41:44.213Z,47.66
2022-08-03T07:44:10.725Z,45.74
2022-08-03T07:46:39.526Z,47.10
2022-08-03T07:49:08.814Z,47.58
2022-08-03T07:51:35.556Z,48.31
2022-08-03T07:54:07.650Z,48.97
2022-08-03T07:56:34.199Z,48.30
2022-08-03T07:59:01.994Z,48.14
2022-08-03T08:01:32.728Z,48.87
2022-08-03T08:03:59.401Z,48.55
2022-08-03T08:06:28.048Z,47.50
2022-08-03T08:08:55.126Z,48.44
2022-08-03T08:11:22.409Z,49.66
2022-08-03T08:13:51.192Z,50.06
2022-08-03T08:16:17.711Z,49.79
2022-08-03T08:18:44.194Z,51.28
2022-08-03T08:21:13.111Z,52.58
2022-08-03T08:23:43.829Z,52.56
2022-08-03T08:26:15.184Z,52.63
2022-08-03T08:28:41.668Z,50.75
2022-08-03T08:31:08.489Z,51.51
2022-08-03T08:34:02.223Z,52.43
2022-08-03T08:36:25.911Z,51.81
2022-08-03T08:38:52.492Z,51.78
2022-08-03T08:41:19.344Z,54.22
2022-08-03T08:43:46.060Z,53.85
2022-08-03T08:46:22.824Z,54.99
2022-08-03T08:48:54.121Z,55.55
2022-08-03T08:51:22.563Z,56.22
2022-08-03T08:53:53.720Z,55.61
2022-08-03T08:56:25.964Z,55.51
2022-08-03T08:58:57.945Z,56.35
2022-08-03T09:01:25.265Z,56.32
2022-08-03T09:03:55.099Z,56.46
2022-08-03T09:06:25.144Z,56.74
2022-08-03T09:08:51.680Z,54.75
2022-08-03T09:11:51.545Z,55.92
2022-08-03T09:14:10.367Z,55.99
2022-08-03T09:17:06.888Z,57.26
2022-08-03T09:19:38.195Z,56.89
2022-08-03T09:22:25.736Z,57.74
2022-08-03T09:25:22.761Z,58.38
2022-08-03T09:27:49.442Z,58.77
2022-08-03T09:30:33.483Z,56.04
2022-08-03T09:33:08.135Z,57.81
2022-08-03T09:35:53.507Z,58.70
2022-08-03T09:38:26.141Z,58.28
2022-08-03T09:40:59.212Z,59.50
2022-08-03T09:43:27.610Z,59.78
2022-08-03T09:46:05.341Z,57.73
2022-08-03T09:48:34.936Z,56.14
2022-08-03T09:51:13.086Z,57.03
2022-08-03T09:53:58.867Z,58.92
2022-08-03T09:56:39.072Z,59.97
2022-08-03T09:59:10.334Z,58.17
2022-08-03T10:01:41.510Z,56.06
2022-08-03T10:04:16.894Z,58.50
2022-08-03T10:06:45.252Z,52.77
2022-08-03T10:09:16.753Z,56.00
2022-08-03T10:11:44.703Z,57.57
2022-08-03T10:14:19.456Z,58.61
2022-08-03T10:16:50.029Z,55.28
2022-08-03T10:19:17.127Z,57.50
2022-08-03T10:21:56.682Z,58.69
2022-08-03T10:24:27.228Z,57.86
2022-08-03T10:27:03.672Z,57.97
2022-08-03T10:29:37.105Z,58.44
2022-08-03T10:32:06.051Z,57.10
2022-08-03T10:34:44.265Z,58.21
2022-08-03T10:37:18.263Z,57.70
2022-08-03T10:39:54.562Z,56.11
2022-08-03T10:42:24.283Z,55.90
2022-08-03T10:45:09.689Z,57.15
2022-08-03T10:47:36.781Z,53.59
2022-08-03T10:50:09.378Z,53.10
2022-08-03T10:52:41.036Z,53.74
2022-08-03T10:55:50.405Z,57.60
2022-08-03T10:58:37.039Z,57.85
2022-08-03T11:01:13.691Z,54.12
2022-08-03T11:03:54.384Z,46.02
2022-08-03T11:06:24.724Z,42.01
2022-08-03T11:09:11.187Z,40.05
2022-08-03T11:11:41.860Z,38.49
2022-08-03T11:14:13.143Z,37.11
2022-08-03T11:16:42.837Z,36.15
2022-08-03T11:19:16.550Z,36.07
2022-08-03T11:21:51.964Z,36.57
2022-08-03T11:24:36.788Z,36.37
2022-08-03T11:27:21.639Z,35.30
2022-08-03T11:30:09.875Z,34.89
2022-08-03T11:32:46.778Z,34.80
2022-08-03T11:35:26.259Z,35.11
2022-08-03T11:38:04.314Z,35.11
2022-08-03T11:40:52.581Z,34.84
2022-08-03T11:43:22.235Z,34.85
2022-08-03T11:45:59.582Z,34.78
2022-08-03T11:48:49.656Z,34.57
2022-08-03T11:51:26.239Z,34.51
2022-08-03T11:54:01.414Z,34.69
2022-08-03T11:56:29.563Z,34.64
2022-08-03T11:59:20.122Z,34.25
2022-08-03T12:01:46.669Z,34.51
2022-08-03T12:04:13.258Z,34.36
2022-08-03T12:06:55.174Z,34.24
2022-08-03T12:09:24.081Z,34.14
2022-08-03T12:12:00.531Z,34.30
2022-08-03T12:14:49.236Z,33.82
2022-08-03T12:17:16.561Z,33.75
2022-08-03T12:19:43.667Z,33.56
2022-08-03T12:22:13.503Z,33.50
2022-08-03T12:24:41.929Z,33.71
2022-08-03T12:27:08.578Z,33.80
2022-08-03T12:29:35.307Z,33.97
2022-08-03T12:32:02.257Z,33.93
2022-08-03T12:34:50.855Z,34.15
2022-08-03T12:37:29.009Z,34.05
2022-08-03T12:40:07.727Z,33.97
2022-08-03T12:42:38.495Z,34.19
2022-08-03T12:45:27.158Z,34.35
2022-08-03T12:47:58.194Z,34.09
2022-08-03T12:50:35.098Z,34.14
2022-08-03T12:53:08.042Z,34.05
2022-08-03T12:56:05.382Z,33.87
2022-08-03T12:58:35.375Z,34.12
2022-08-03T13:01:05.095Z,33.89
2022-08-03T13:03:54.987Z,33.65
2022-08-03T13:06:24.419Z,33.73
2022-08-03T13:09:04.211Z,33.98
2022-08-03T13:11:57.693Z,33.87
2022-08-03T13:14:19.979Z,33.97
2022-08-03T13:16:50.514Z,34.08
2022-08-03T13:19:17.111Z,34.24
2022-08-03T13:21:53.864Z,34.27
2022-08-03T13:24:32.139Z,34.38
2022-08-03T13:28:00.948Z,34.02
2022-08-03T13:29:54.037Z,33.90
2022-08-03T13:32:21.544Z,34.11
2022-08-03T13:34:50.351Z,33.88
2022-08-03T13:37:16.939Z,33.70
2022-08-03T13:39:57.545Z,33.77
2022-08-03T13:42:33.757Z,33.97
2022-08-03T13:45:01.625Z,33.80
2022-08-03T13:47:49.531Z,33.83
2022-08-03T13:50:16.457Z,33.42
2022-08-03T13:52:42.988Z,33.43
2022-08-03T13:55:09.896Z,33.53
2022-08-03T13:58:03.677Z,33.70
2022-08-03T14:00:29.017Z,33.85
2022-08-03T14:03:13.223Z,33.80
2022-08-03T14:05:41.879Z,33.88
2022-08-03T14:08:08.485Z,34.01
2022-08-03T14:10:40.399Z,34.10
2022-08-03T14:13:07.779Z,33.61
2022-08-03T14:15:37.514Z,33.48
2022-08-03T14:18:12.760Z,33.70
2022-08-03T14:20:48.973Z,33.69
2022-08-03T14:23:18.642Z,33.66
2022-08-03T14:25:52.354Z,33.76
2022-08-03T14:28:24.834Z,33.72
2022-08-03T14:30:55.753Z,33.63
2022-08-03T14:33:23.143Z,33.69
2022-08-03T14:35:52.411Z,33.79
2022-08-03T14:38:19.150Z,33.76
2022-08-03T14:40:48.932Z,33.86
2022-08-03T14:43:21.125Z,33.74
2022-08-03T14:45:52.027Z,33.76
2022-08-03T14:50:28.573Z,33.79
2022-08-03T14:51:10.097Z,33.65
2022-08-03T14:53:38.672Z,33.37
2022-08-03T14:56:10.218Z,33.22
2022-08-03T14:58:37.312Z,33.15
2022-08-03T15:01:04.105Z,33.08
2022-08-03T15:03:52.846Z,33.12
2022-08-03T15:06:19.509Z,33.32
2022-08-03T15:09:12.412Z,33.41
2022-08-03T15:11:39.975Z,33.50
2022-08-03T15:14:09.296Z,33.59
2022-08-03T15:16:36.476Z,33.52
2022-08-03T15:19:03.104Z,33.48
2022-08-03T15:21:52.684Z,33.54
2022-08-03T15:24:19.856Z,33.42
2022-08-03T15:26:46.695Z,33.39
2022-08-03T15:30:08.772Z,33.43
2022-08-03T15:32:06.125Z,33.36
2022-08-03T15:34:35.652Z,33.31
2022-08-03T15:37:02.150Z,33.07
2022-08-03T15:39:28.787Z,33.16
2022-08-03T15:41:57.625Z,33.19
2022-08-03T15:44:26.785Z,33.34
2022-08-03T15:46:53.849Z,33.36
2022-08-03T15:49:20.661Z,33.32
2022-08-03T15:51:47.903Z,33.23
2022-08-03T15:54:14.539Z,33.30
2022-08-03T15:56:45.301Z,33.26
2022-08-03T15:59:15.227Z,33.26
2022-08-03T16:01:42.426Z,33.29
2022-08-03T16:04:09.342Z,33.26
2022-08-03T16:06:36.614Z,33.30
2022-08-03T16:09:23.727Z,33.25
2022-08-03T16:11:54.893Z,33.34
2022-08-03T16:14:34.424Z,33.32
2022-08-03T16:17:06.957Z,33.28
2022-08-03T16:19:35.825Z,33.19
2022-08-03T16:22:02.369Z,33.21
2022-08-03T16:24:29.939Z,33.19
2022-08-03T16:27:00.754Z,33.10
2022-08-03T16:29:29.990Z,33.07
2022-08-03T16:31:56.566Z,33.07
2022-08-03T16:34:28.536Z,32.98
2022-08-03T16:36:57.488Z,32.93
2022-08-03T16:39:24.094Z,32.93
2022-08-03T16:41:53.622Z,32.97
2022-08-03T16:44:29.600Z,32.92
2022-08-03T16:46:56.377Z,32.90
2022-08-03T16:49:54.012Z,32.90
2022-08-03T16:52:12.868Z,32.81
2022-08-03T16:54:39.866Z,32.73
2022-08-03T16:57:11.881Z,32.74
2022-08-03T16:59:38.532Z,32.76
2022-08-03T17:02:10.445Z,32.81
2022-08-03T17:04:40.347Z,32.79
2022-08-03T17:07:07.676Z,32.74
2022-08-03T17:09:40.320Z,32.72
2022-08-03T17:12:07.545Z,32.64
2022-08-03T17:14:40.611Z,32.42
2022-08-03T17:17:21.056Z,32.43
2022-08-03T17:19:48.716Z,32.39
2022-08-03T17:22:26.950Z,32.35
2022-08-03T17:24:54.871Z,32.32
2022-08-03T17:28:49.564Z,32.35
2022-08-03T17:30:22.148Z,32.26
2022-08-03T17:32:57.580Z,32.18
2022-08-03T17:35:34.376Z,32.07
2022-08-03T17:38:11.970Z,32.01
2022-08-03T17:40:48.079Z,31.94
2022-08-03T17:44:13.808Z,31.83
2022-08-03T17:46:10.688Z,31.76
2022-08-03T17:48:41.201Z,31.67
2022-08-03T17:51:17.300Z,31.59
2022-08-03T17:53:53.246Z,31.48
2022-08-03T17:56:45.047Z,31.32
2022-08-03T17:59:52.181Z,31.29
2022-08-03T18:03:03.338Z,31.22
2022-08-03T18:06:11.195Z,31.11
2022-08-03T18:08:32.367Z,30.99
2022-08-03T18:11:14.916Z,30.90
2022-08-03T18:13:57.631Z,30.82
2022-08-03T18:16:35.652Z,30.71
2022-08-03T18:19:09.304Z,30.57
2022-08-03T18:22:03.151Z,30.39
2022-08-03T18:24:32.286Z,30.43
2022-08-03T18:27:04.027Z,30.75
2022-08-03T18:29:35.433Z,30.84
2022-08-03T18:32:06.065Z,30.81
2022-08-03T18:34:53.853Z,30.63
2022-08-03T18:37:25.193Z,30.47
2022-08-03T18:39:55.454Z,30.27
2022-08-03T18:42:27.234Z,30.14
2022-08-03T18:44:55.947Z,29.62
2022-08-03T18:47:52.048Z,29.48
2022-08-03T18:50:19.670Z,29.54
2022-08-03T18:53:15.743Z,29.59
2022-08-03T18:56:02.146Z,29.51
2022-08-03T18:58:38.804Z,29.40
2022-08-03T19:01:59.929Z,29.23
2022-08-03T19:04:08.818Z,29.17
2022-08-03T19:06:53.798Z,29.06
2022-08-03T19:09:48.134Z,28.96
2022-08-03T19:12:32.396Z,28.88
2022-08-03T19:15:06.225Z,28.80
2022-08-03T19:17:43.445Z,28.66
2022-08-03T19:20:30.670Z,28.57
2022-08-03T19:22:59.361Z,28.50
2022-08-03T19:25:35.396Z,28.42
2022-08-03T19:28:07.407Z,28.34
2022-08-03T19:30:39.734Z,28.24
2022-08-03T19:33:16.516Z,28.12
2022-08-03T19:35:55.215Z,27.91
2022-08-03T19:38:28.285Z,27.87
2022-08-03T19:41:00.940Z,27.87
2022-08-03T19:43:53.358Z,27.72
2022-08-03T19:46:30.151Z,27.64
2022-08-03T19:49:15.360Z,27.49
2022-08-03T19:52:01.194Z,27.45
2022-08-03T19:54:45.483Z,27.39
2022-08-03T19:57:27.603Z,27.35
2022-08-03T19:59:56.069Z,27.29
2022-08-03T20:02:26.189Z,27.22
2022-08-03T20:05:00.061Z,27.23
2022-08-03T20:07:28.915Z,27.18
2022-08-03T20:12:49.729Z,27.03
2022-08-03T20:15:30.930Z,26.90
2022-08-03T20:18:00.290Z,26.79
2022-08-03T20:20:37.257Z,26.83
2022-08-03T20:23:15.210Z,26.79
2022-08-03T20:25:57.130Z,26.75
2022-08-03T20:28:49.713Z,26.67
2022-08-03T20:31:19.010Z,26.68
2022-08-03T20:33:48.679Z,26.64
2022-08-03T20:36:17.826Z,26.62
2022-08-03T20:38:47.298Z,26.57
2022-08-03T20:41:15.923Z,26.58
2022-08-03T20:43:46.051Z,26.57
2022-08-03T20:46:29.242Z,26.43
2022-08-03T20:49:01.228Z,26.42
2022-08-03T20:51:50.721Z,26.49
2022-08-03T20:54:29.373Z,26.56
2022-08-03T20:56:58.407Z,26.58
2022-08-03T20:59:38.471Z,26.59
2022-08-03T21:02:19.774Z,26.61
2022-08-03T21:05:14.495Z,26.58
2022-08-03T21:08:06.948Z,26.52
2022-08-03T21:10:58.119Z,26.43
2022-08-03T21:13:11.060Z,27.08
2022-08-03T21:14:07.799Z,26.32
2022-08-03T21:16:58.316Z,26.19
2022-08-03T21:19:51.729Z,26.15
2022-08-03T21:22:45.113Z,26.02
2022-08-03T21:25:33.778Z,25.98
2022-08-03T21:28:27.216Z,25.90
2022-08-03T21:31:24.543Z,25.80
2022-08-03T21:34:13.047Z,25.80
2022-08-03T21:36:59.860Z,25.77
2022-08-03T21:39:50.550Z,25.77
2022-08-03T21:42:40.253Z,25.69
2022-08-03T21:45:27.245Z,25.61
2022-08-03T21:48:15.591Z,25.60
2022-08-03T21:51:03.581Z,25.53
2022-08-03T21:54:03.517Z,25.40
2022-08-03T21:57:01.612Z,25.33
2022-08-03T21:59:56.919Z,25.29
2022-08-03T22:02:57.380Z,25.32
2022-08-03T22:05:45.046Z,25.33
2022-08-03T22:08:34.476Z,25.19
2022-08-03T22:11:21.790Z,25.20
2022-08-03T22:14:10.923Z,25.08
2022-08-03T22:16:57.811Z,25.09
2022-08-03T22:19:51.368Z,25.06
2022-08-03T22:22:39.767Z,25.01
2022-08-03T22:25:33.441Z,24.87
2022-08-03T22:28:22.003Z,24.76
2022-08-03T22:31:30.673Z,24.61
2022-08-03T22:34:24.436Z,24.63
2022-08-03T22:37:16.330Z,24.68
2022-08-03T22:40:09.115Z,24.48
2022-08-03T22:42:56.706Z,24.34
2022-08-03T22:46:09.363Z,24.32
2022-08-03T22:48:54.062Z,24.23
2022-08-03T22:51:41.350Z,24.25
2022-08-03T22:54:32.447Z,24.18
2022-08-03T22:57:21.674Z,24.13
2022-08-03T23:00:12.080Z,24.06
2022-08-03T23:03:02.390Z,24.03
2022-08-03T23:06:00.304Z,23.88
2022-08-03T23:08:50.396Z,23.91
2022-08-03T23:11:45.570Z,23.89
2022-08-03T23:14:38.457Z,23.64
2022-08-03T23:17:26.607Z,23.60
2022-08-03T23:20:14.543Z,23.58
2022-08-03T23:23:01.860Z,23.48
2022-08-03T23:25:50.176Z,23.48
2022-08-03T23:28:38.536Z,23.52
2022-08-03T23:31:27.642Z,23.36
2022-08-03T23:34:33.523Z,23.31
2022-08-03T23:37:20.817Z,23.34
2022-08-03T23:40:09.590Z,23.41
2022-08-03T23:43:00.210Z,23.37
2022-08-03T23:45:48.355Z,23.13
2022-08-03T23:48:35.300Z,23.02
2022-08-03T23:51:37.405Z,23.10
2022-08-03T23:54:48.083Z,23.05
2022-08-03T23:57:53.798Z,22.98
